Profiler II — CZ2496 — position and weather

sailwx.info

Track history (hours):
 
Tides and Currents Weather Stations Pressure Air Temp Water Temp Dewpoint Dewpoint Depression Visibility Wind Speed Wind Dir Waves Ship Positions

Profiler II

Last reported at 2017-Sep-19 19:24 UTC. Time now 2017-Sep-21 12:43 UTC.
Position N 50°02' W 125°15'.

Type: Other ship. MMSI: 316002054.

Date/timePositionNaut miles runAvg speedWind from/ knotsBaromVisibWave heightAir tempDewpointWater temp
2017-Sep-19 19:24N 50°02' W 125°15'0 0.0
2017-Sep-19 19:00N 50°02' W 125°15'0 0.1
2017-Sep-19 18:31N 50°02' W 125°15'5 8.8
2017-Sep-19 17:59N 49°58' W 125°10'611.9
2017-Sep-19 17:30N 49°59' W 125°02'611.8
2017-Sep-19 17:00N 49°60' W 124°53'612.4
2017-Sep-19 16:30N 49°57' W 124°45'5 9.7
2017-Sep-19 16:00N 49°54' W 124°39'510.2
2017-Sep-19 15:30N 49°50' W 124°33'2 4.4
2017-Sep-19 14:58N 49°48' W 124°31'0 0.0
2017-Sep-19 14:29N 49°48' W 124°31'0 0.0
2017-Sep-19 14:01N 49°48' W 124°31'0 0.0
2017-Sep-19 13:31N 49°48' W 124°31'0 0.0
2017-Sep-19 13:01N 49°48' W 124°31'0 0.0
2017-Sep-19 12:31N 49°48' W 124°31'0 0.0
2017-Sep-19 12:00N 49°48' W 124°31'0 0.0
2017-Sep-19 11:31N 49°48' W 124°31'0 0.0
2017-Sep-19 11:00N 49°48' W 124°31'0 0.0
2017-Sep-19 10:31N 49°48' W 124°31'0 0.0
2017-Sep-19 10:01N 49°48' W 124°31'0 0.0
2017-Sep-19 09:31N 49°48' W 124°31'0 0.0
2017-Sep-19 08:57N 49°48' W 124°31'0 0.0
2017-Sep-19 08:30N 49°48' W 124°31'0 0.0
2017-Sep-19 07:58N 49°48' W 124°31'0 0.0
2017-Sep-19 07:29N 49°48' W 124°31'0 0.0
2017-Sep-19 07:01N 49°48' W 124°31'0 0.0
2017-Sep-19 06:31N 49°48' W 124°31'0 0.0
2017-Sep-19 06:00N 49°48' W 124°31'0 0.0
2017-Sep-19 05:30N 49°48' W 124°31'0 0.0
2017-Sep-19 05:01N 49°48' W 124°31'0 0.0
2017-Sep-19 04:28N 49°48' W 124°31'0 0.0
2017-Sep-19 04:00N 49°48' W 124°31'0 0.0
2017-Sep-19 03:30N 49°48' W 124°31'0 0.0
2017-Sep-19 03:00N 49°48' W 124°31'0 0.0
2017-Sep-19 02:29N 49°48' W 124°31'0 0.0
2017-Sep-19 02:00N 49°48' W 124°31'0 0.0
2017-Sep-19 01:30N 49°48' W 124°31'0 0.0
2017-Sep-19 01:00N 49°48' W 124°31'0 0.0
2017-Sep-19 00:31N 49°48' W 124°31'0 0.0
2017-Sep-19 00:01N 49°48' W 124°31'0 0.0
2017-Sep-18 23:30N 49°48' W 124°31'0 0.0
2017-Sep-18 23:00N 49°48' W 124°31'0 0.0
2017-Sep-18 22:30N 49°48' W 124°31'0 0.0
2017-Sep-18 22:00N 49°48' W 124°31'0 0.0
2017-Sep-18 21:29N 49°48' W 124°31'0 0.0
2017-Sep-18 21:00N 49°48' W 124°31'0 0.0
2017-Sep-18 20:30N 49°48' W 124°31'0 0.9
2017-Sep-18 20:00N 49°48' W 124°31'510.6
2017-Sep-18 19:30N 49°45' W 124°24'510.5
2017-Sep-18 19:00N 49°42' W 124°17'611.5
2017-Sep-18 18:30N 49°39' W 124°10'612.3
2017-Sep-18 18:00N 49°34' W 124°04'612.1
2017-Sep-18 17:30N 49°30' W 123°57'713.0
2017-Sep-18 17:00N 49°26' W 123°49'713.6
2017-Sep-18 16:30N 49°23' W 123°39'815.5
2017-Sep-18 16:00N 49°20' W 123°28'815.2
2017-Sep-18 15:30N 49°17' W 123°18'714.8
2017-Sep-18 15:01N 49°12' W 123°09'5 9.5
2017-Sep-18 14:31N 49°12' W 123°02'4 8.4
2017-Sep-18 14:00N 49°12' W 122°55'0 0.0
2017-Sep-18 13:30N 49°12' W 122°55'0 0.0
2017-Sep-18 13:00N 49°12' W 122°55'0 0.0
2017-Sep-18 12:30N 49°12' W 122°55'0 0.0
2017-Sep-18 12:00N 49°12' W 122°55'0 0.0
2017-Sep-18 11:30N 49°12' W 122°55'0 0.0
2017-Sep-18 11:00N 49°12' W 122°55'0 0.0
2017-Sep-18 10:30N 49°12' W 122°55'0 0.0
2017-Sep-18 10:00N 49°12' W 122°55'0 0.0
2017-Sep-18 09:30N 49°12' W 122°55'0 0.0
2017-Sep-18 09:00N 49°12' W 122°55'0 0.0
2017-Sep-18 08:30N 49°12' W 122°55'0 0.0
2017-Sep-18 08:00N 49°12' W 122°55'0 0.0
2017-Sep-18 07:30N 49°12' W 122°55'0 0.0
2017-Sep-18 07:00N 49°12' W 122°55'0 0.0
2017-Sep-18 06:30N 49°12' W 122°55'0 0.0
2017-Sep-18 06:00N 49°12' W 122°55'0 0.0
2017-Sep-18 05:30N 49°12' W 122°55'0 0.0
2017-Sep-18 05:00N 49°12' W 122°55'0 0.0
2017-Sep-18 04:30N 49°12' W 122°55'0 0.0
2017-Sep-18 04:00N 49°12' W 122°55'0 0.0
2017-Sep-18 03:30N 49°12' W 122°55'0 0.0
2017-Sep-18 03:00N 49°12' W 122°55'0 0.0
2017-Sep-18 02:30N 49°12' W 122°55'0 0.0
2017-Sep-18 02:00N 49°12' W 122°55'0 0.0
2017-Sep-18 01:30N 49°12' W 122°55'0 0.0
2017-Sep-18 01:00N 49°12' W 122°55'0 0.0
2017-Sep-18 00:30N 49°12' W 122°55'0 0.0
2017-Sep-18 00:00N 49°12' W 122°55'0 0.0
2017-Sep-17 23:30N 49°12' W 122°55'0 0.0
2017-Sep-17 23:00N 49°12' W 122°55'0 0.0
2017-Sep-17 22:30N 49°12' W 122°55'0 0.0
2017-Sep-17 22:00N 49°12' W 122°55'0 0.0
2017-Sep-17 21:30N 49°12' W 122°55'0 0.0
2017-Sep-17 21:00N 49°12' W 122°55'0 0.0
2017-Sep-17 20:30N 49°12' W 122°55'0 0.0
2017-Sep-17 20:00N 49°12' W 122°55'0 0.0
2017-Sep-17 19:30N 49°12' W 122°55'0 0.0
2017-Sep-17 19:00N 49°12' W 122°55'0 0.0
2017-Sep-17 18:30N 49°12' W 122°55'0 0.0
2017-Sep-17 18:00N 49°12' W 122°55'0 0.0
2017-Sep-17 17:30N 49°12' W 122°55'0 0.0
2017-Sep-17 17:00N 49°12' W 122°55'0 0.0
2017-Sep-17 16:30N 49°12' W 122°55'0 0.0
2017-Sep-17 16:00N 49°12' W 122°55'0 0.0
2017-Sep-17 15:30N 49°12' W 122°55'0 0.0
2017-Sep-17 15:00N 49°12' W 122°55'0 0.0
2017-Sep-17 14:30N 49°12' W 122°55'0 0.0
2017-Sep-17 14:00N 49°12' W 122°55'0 0.0
2017-Sep-17 13:30N 49°12' W 122°55'0 0.0
2017-Sep-17 13:00N 49°12' W 122°55'0 0.0
2017-Sep-17 12:30N 49°12' W 122°55'0 0.0
2017-Sep-17 12:00N 49°12' W 122°55'0 0.0
2017-Sep-17 11:30N 49°12' W 122°55'0 0.0
2017-Sep-17 11:00N 49°12' W 122°55'0 0.0
2017-Sep-17 10:30N 49°12' W 122°55'0 0.0
2017-Sep-17 10:00N 49°12' W 122°55'0 0.0
2017-Sep-17 09:30N 49°12' W 122°55'0 0.0
2017-Sep-17 09:00N 49°12' W 122°55'0 0.0
2017-Sep-17 08:30N 49°12' W 122°55'0 0.0
2017-Sep-17 08:00N 49°12' W 122°55'0 0.0
2017-Sep-17 07:30N 49°12' W 122°55'0 0.0
2017-Sep-17 07:00N 49°12' W 122°55'0 0.0
2017-Sep-17 06:30N 49°12' W 122°55'0 0.0
2017-Sep-17 06:00N 49°12' W 122°55'0 0.0
2017-Sep-17 05:30N 49°12' W 122°55'0 0.0
2017-Sep-17 05:00N 49°12' W 122°55'0 0.0
2017-Sep-17 04:30N 49°12' W 122°55'0 0.0
2017-Sep-17 04:00N 49°12' W 122°55'0 0.0
2017-Sep-17 03:30N 49°12' W 122°55'0 0.0
2017-Sep-17 03:00N 49°12' W 122°55'0 0.0
2017-Sep-17 02:30N 49°12' W 122°55'0 0.0
2017-Sep-17 02:00N 49°12' W 122°55'0 0.0
2017-Sep-17 01:30N 49°12' W 122°55'0 0.0
2017-Sep-17 01:00N 49°12' W 122°55'0 0.0
2017-Sep-17 00:30N 49°12' W 122°55'0 0.0
2017-Sep-17 00:00N 49°12' W 122°55'0 0.0
2017-Sep-16 23:30N 49°12' W 122°55'0 0.0
2017-Sep-16 22:08N 49°12' W 122°55'0 0.0
2017-Sep-16 22:00N 49°12' W 122°55'0 0.0
2017-Sep-16 21:28N 49°12' W 122°55'0 0.0
2017-Sep-16 20:55N 49°12' W 122°55'0 0.0
2017-Sep-16 20:30N 49°12' W 122°55'0 0.0
2017-Sep-16 19:58N 49°12' W 122°55'0 0.0
2017-Sep-16 19:30N 49°12' W 122°55'0 0.0
2017-Sep-16 19:00N 49°12' W 122°55'0 0.0
2017-Sep-16 18:30N 49°12' W 122°55'0 0.0
2017-Sep-16 17:48N 49°12' W 122°55'0 0.0
2017-Sep-16 17:15N 49°12' W 122°55'0 0.0
2017-Sep-16 16:47N 49°12' W 122°55'0 0.0
2017-Sep-16 16:30N 49°12' W 122°55'0 0.0
2017-Sep-16 16:00N 49°12' W 122°55'0 0.0
2017-Sep-16 15:29N 49°12' W 122°55'0 0.0
2017-Sep-16 15:00N 49°12' W 122°55'0 0.0
2017-Sep-16 14:28N 49°12' W 122°55'0 0.0
2017-Sep-16 11:08N 49°12' W 122°55'0 0.0
2017-Sep-16 10:54N 49°12' W 122°55'0 0.0
2017-Sep-16 10:30N 49°12' W 122°55'0 0.0
2017-Sep-16 09:39N 49°12' W 122°55'0 0.0
2017-Sep-16 09:24N 49°12' W 122°55'0 0.0
2017-Sep-16 08:59N 49°12' W 122°55'0 0.0
2017-Sep-16 08:30N 49°12' W 122°55'0 0.0
2017-Sep-16 08:00N 49°12' W 122°55'0 0.0
2017-Sep-16 07:30N 49°12' W 122°55'0 0.0
2017-Sep-16 07:00N 49°12' W 122°55'0 0.0
2017-Sep-16 06:30N 49°12' W 122°55'0 0.0
2017-Sep-16 06:01N 49°12' W 122°55'0 0.0
2017-Sep-16 05:30N 49°12' W 122°55'0 0.0
2017-Sep-16 05:00N 49°12' W 122°55'0 0.0
2017-Sep-16 04:30N 49°12' W 122°55'0 0.0
2017-Sep-16 01:19N 49°12' W 122°55'0 0.0
2017-Sep-16 00:59N 49°12' W 122°55'0 0.0
2017-Sep-16 00:27N 49°12' W 122°55'0 0.0
2017-Sep-15 23:30N 49°12' W 122°55'0 0.0
2017-Sep-15 23:00N 49°12' W 122°55'0 0.0
2017-Sep-15 22:30N 49°12' W 122°55'1 2.4
2017-Sep-15 22:00N 49°10' W 122°56'714.8
2017-Sep-15 21:30N 49°07' W 123°06'4 7.8
2017-Sep-15 21:00N 49°07' W 123°11'5 9.1
2017-Sep-15 20:30N 49°07' W 123°05'4 8.2
2017-Sep-15 20:00N 49°10' W 122°60'  
Track history (hours):
 
Tides and Currents Weather Stations Pressure Air Temp Water Temp Dewpoint Dewpoint Depression Visibility Wind Speed Wind Dir Waves Ship Positions

Profiler II

Last reported at 2017-Sep-19 19:24 UTC. Time now 2017-Sep-21 12:43 UTC.
Position N 50°02' W 125°15'.

Type: Other ship. MMSI: 316002054.

Date/timePositionNaut miles runAvg speedWind from/ knotsBaromVisibWave heightAir tempDewpointWater temp
2017-Sep-19 19:24N 50°02' W 125°15'0 0.0
2017-Sep-19 19:00N 50°02' W 125°15'0 0.1
2017-Sep-19 18:31N 50°02' W 125°15'5 8.8
2017-Sep-19 17:59N 49°58' W 125°10'611.9
2017-Sep-19 17:30N 49°59' W 125°02'611.8
2017-Sep-19 17:00N 49°60' W 124°53'612.4
2017-Sep-19 16:30N 49°57' W 124°45'5 9.7
2017-Sep-19 16:00N 49°54' W 124°39'510.2
2017-Sep-19 15:30N 49°50' W 124°33'2 4.4
2017-Sep-19 14:58N 49°48' W 124°31'0 0.0
2017-Sep-19 14:29N 49°48' W 124°31'0 0.0
2017-Sep-19 14:01N 49°48' W 124°31'0 0.0
2017-Sep-19 13:31N 49°48' W 124°31'0 0.0
2017-Sep-19 13:01N 49°48' W 124°31'0 0.0
2017-Sep-19 12:31N 49°48' W 124°31'0 0.0
2017-Sep-19 12:00N 49°48' W 124°31'0 0.0
2017-Sep-19 11:31N 49°48' W 124°31'0 0.0
2017-Sep-19 11:00N 49°48' W 124°31'0 0.0
2017-Sep-19 10:31N 49°48' W 124°31'0 0.0
2017-Sep-19 10:01N 49°48' W 124°31'0 0.0
2017-Sep-19 09:31N 49°48' W 124°31'0 0.0
2017-Sep-19 08:57N 49°48' W 124°31'0 0.0
2017-Sep-19 08:30N 49°48' W 124°31'0 0.0
2017-Sep-19 07:58N 49°48' W 124°31'0 0.0
2017-Sep-19 07:29N 49°48' W 124°31'0 0.0
2017-Sep-19 07:01N 49°48' W 124°31'0 0.0
2017-Sep-19 06:31N 49°48' W 124°31'0 0.0
2017-Sep-19 06:00N 49°48' W 124°31'0 0.0
2017-Sep-19 05:30N 49°48' W 124°31'0 0.0
2017-Sep-19 05:01N 49°48' W 124°31'0 0.0
2017-Sep-19 04:28N 49°48' W 124°31'0 0.0
2017-Sep-19 04:00N 49°48' W 124°31'0 0.0
2017-Sep-19 03:30N 49°48' W 124°31'0 0.0
2017-Sep-19 03:00N 49°48' W 124°31'0 0.0
2017-Sep-19 02:29N 49°48' W 124°31'0 0.0
2017-Sep-19 02:00N 49°48' W 124°31'0 0.0
2017-Sep-19 01:30N 49°48' W 124°31'0 0.0
2017-Sep-19 01:00N 49°48' W 124°31'0 0.0
2017-Sep-19 00:31N 49°48' W 124°31'0 0.0
2017-Sep-19 00:01N 49°48' W 124°31'0 0.0
2017-Sep-18 23:30N 49°48' W 124°31'0 0.0
2017-Sep-18 23:00N 49°48' W 124°31'0 0.0
2017-Sep-18 22:30N 49°48' W 124°31'0 0.0
2017-Sep-18 22:00N 49°48' W 124°31'0 0.0
2017-Sep-18 21:29N 49°48' W 124°31'0 0.0
2017-Sep-18 21:00N 49°48' W 124°31'0 0.0
2017-Sep-18 20:30N 49°48' W 124°31'0 0.9
2017-Sep-18 20:00N 49°48' W 124°31'510.6
2017-Sep-18 19:30N 49°45' W 124°24'510.5
2017-Sep-18 19:00N 49°42' W 124°17'611.5
2017-Sep-18 18:30N 49°39' W 124°10'612.3
2017-Sep-18 18:00N 49°34' W 124°04'612.1
2017-Sep-18 17:30N 49°30' W 123°57'713.0
2017-Sep-18 17:00N 49°26' W 123°49'713.6
2017-Sep-18 16:30N 49°23' W 123°39'815.5
2017-Sep-18 16:00N 49°20' W 123°28'815.2
2017-Sep-18 15:30N 49°17' W 123°18'714.8
2017-Sep-18 15:01N 49°12' W 123°09'5 9.5
2017-Sep-18 14:31N 49°12' W 123°02'4 8.4
2017-Sep-18 14:00N 49°12' W 122°55'0 0.0
2017-Sep-18 13:30N 49°12' W 122°55'0 0.0
2017-Sep-18 13:00N 49°12' W 122°55'0 0.0
2017-Sep-18 12:30N 49°12' W 122°55'0 0.0
2017-Sep-18 12:00N 49°12' W 122°55'0 0.0
2017-Sep-18 11:30N 49°12' W 122°55'0 0.0
2017-Sep-18 11:00N 49°12' W 122°55'0 0.0
2017-Sep-18 10:30N 49°12' W 122°55'0 0.0
2017-Sep-18 10:00N 49°12' W 122°55'0 0.0
2017-Sep-18 09:30N 49°12' W 122°55'0 0.0
2017-Sep-18 09:00N 49°12' W 122°55'0 0.0
2017-Sep-18 08:30N 49°12' W 122°55'0 0.0
2017-Sep-18 08:00N 49°12' W 122°55'0 0.0
2017-Sep-18 07:30N 49°12' W 122°55'0 0.0
2017-Sep-18 07:00N 49°12' W 122°55'0 0.0
2017-Sep-18 06:30N 49°12' W 122°55'0 0.0
2017-Sep-18 06:00N 49°12' W 122°55'0 0.0
2017-Sep-18 05:30N 49°12' W 122°55'0 0.0
2017-Sep-18 05:00N 49°12' W 122°55'0 0.0
2017-Sep-18 04:30N 49°12' W 122°55'0 0.0
2017-Sep-18 04:00N 49°12' W 122°55'0 0.0
2017-Sep-18 03:30N 49°12' W 122°55'0 0.0
2017-Sep-18 03:00N 49°12' W 122°55'0 0.0
2017-Sep-18 02:30N 49°12' W 122°55'0 0.0
2017-Sep-18 02:00N 49°12' W 122°55'0 0.0
2017-Sep-18 01:30N 49°12' W 122°55'0 0.0
2017-Sep-18 01:00N 49°12' W 122°55'0 0.0
2017-Sep-18 00:30N 49°12' W 122°55'0 0.0
2017-Sep-18 00:00N 49°12' W 122°55'0 0.0
2017-Sep-17 23:30N 49°12' W 122°55'0 0.0
2017-Sep-17 23:00N 49°12' W 122°55'0 0.0
2017-Sep-17 22:30N 49°12' W 122°55'0 0.0
2017-Sep-17 22:00N 49°12' W 122°55'0 0.0
2017-Sep-17 21:30N 49°12' W 122°55'0 0.0
2017-Sep-17 21:00N 49°12' W 122°55'0 0.0
2017-Sep-17 20:30N 49°12' W 122°55'0 0.0
2017-Sep-17 20:00N 49°12' W 122°55'0 0.0
2017-Sep-17 19:30N 49°12' W 122°55'0 0.0
2017-Sep-17 19:00N 49°12' W 122°55'0 0.0
2017-Sep-17 18:30N 49°12' W 122°55'0 0.0
2017-Sep-17 18:00N 49°12' W 122°55'0 0.0
2017-Sep-17 17:30N 49°12' W 122°55'0 0.0
2017-Sep-17 17:00N 49°12' W 122°55'0 0.0
2017-Sep-17 16:30N 49°12' W 122°55'0 0.0
2017-Sep-17 16:00N 49°12' W 122°55'0 0.0
2017-Sep-17 15:30N 49°12' W 122°55'0 0.0
2017-Sep-17 15:00N 49°12' W 122°55'0 0.0
2017-Sep-17 14:30N 49°12' W 122°55'0 0.0
2017-Sep-17 14:00N 49°12' W 122°55'0 0.0
2017-Sep-17 13:30N 49°12' W 122°55'0 0.0
2017-Sep-17 13:00N 49°12' W 122°55'0 0.0
2017-Sep-17 12:30N 49°12' W 122°55'0 0.0
2017-Sep-17 12:00N 49°12' W 122°55'0 0.0
2017-Sep-17 11:30N 49°12' W 122°55'0 0.0
2017-Sep-17 11:00N 49°12' W 122°55'0 0.0
2017-Sep-17 10:30N 49°12' W 122°55'0 0.0
2017-Sep-17 10:00N 49°12' W 122°55'0 0.0
2017-Sep-17 09:30N 49°12' W 122°55'0 0.0
2017-Sep-17 09:00N 49°12' W 122°55'0 0.0
2017-Sep-17 08:30N 49°12' W 122°55'0 0.0
2017-Sep-17 08:00N 49°12' W 122°55'0 0.0
2017-Sep-17 07:30N 49°12' W 122°55'0 0.0
2017-Sep-17 07:00N 49°12' W 122°55'0 0.0
2017-Sep-17 06:30N 49°12' W 122°55'0 0.0
2017-Sep-17 06:00N 49°12' W 122°55'0 0.0
2017-Sep-17 05:30N 49°12' W 122°55'0 0.0
2017-Sep-17 05:00N 49°12' W 122°55'0 0.0
2017-Sep-17 04:30N 49°12' W 122°55'0 0.0
2017-Sep-17 04:00N 49°12' W 122°55'0 0.0
2017-Sep-17 03:30N 49°12' W 122°55'0 0.0
2017-Sep-17 03:00N 49°12' W 122°55'0 0.0
2017-Sep-17 02:30N 49°12' W 122°55'0 0.0
2017-Sep-17 02:00N 49°12' W 122°55'0 0.0
2017-Sep-17 01:30N 49°12' W 122°55'0 0.0
2017-Sep-17 01:00N 49°12' W 122°55'0 0.0
2017-Sep-17 00:30N 49°12' W 122°55'0 0.0
2017-Sep-17 00:00N 49°12' W 122°55'0 0.0
2017-Sep-16 23:30N 49°12' W 122°55'0 0.0
2017-Sep-16 22:08N 49°12' W 122°55'0 0.0
2017-Sep-16 22:00N 49°12' W 122°55'0 0.0
2017-Sep-16 21:28N 49°12' W 122°55'0 0.0
2017-Sep-16 20:55N 49°12' W 122°55'0 0.0
2017-Sep-16 20:30N 49°12' W 122°55'0 0.0
2017-Sep-16 19:58N 49°12' W 122°55'0 0.0
2017-Sep-16 19:30N 49°12' W 122°55'0 0.0
2017-Sep-16 19:00N 49°12' W 122°55'0 0.0
2017-Sep-16 18:30N 49°12' W 122°55'0 0.0
2017-Sep-16 17:48N 49°12' W 122°55'0 0.0
2017-Sep-16 17:15N 49°12' W 122°55'0 0.0
2017-Sep-16 16:47N 49°12' W 122°55'0 0.0
2017-Sep-16 16:30N 49°12' W 122°55'0 0.0
2017-Sep-16 16:00N 49°12' W 122°55'0 0.0
2017-Sep-16 15:29N 49°12' W 122°55'0 0.0
2017-Sep-16 15:00N 49°12' W 122°55'0 0.0
2017-Sep-16 14:28N 49°12' W 122°55'0 0.0
2017-Sep-16 11:08N 49°12' W 122°55'0 0.0
2017-Sep-16 10:54N 49°12' W 122°55'0 0.0
2017-Sep-16 10:30N 49°12' W 122°55'0 0.0
2017-Sep-16 09:39N 49°12' W 122°55'0 0.0
2017-Sep-16 09:24N 49°12' W 122°55'0 0.0
2017-Sep-16 08:59N 49°12' W 122°55'0 0.0
2017-Sep-16 08:30N 49°12' W 122°55'0 0.0
2017-Sep-16 08:00N 49°12' W 122°55'0 0.0
2017-Sep-16 07:30N 49°12' W 122°55'0 0.0
2017-Sep-16 07:00N 49°12' W 122°55'0 0.0
2017-Sep-16 06:30N 49°12' W 122°55'0 0.0
2017-Sep-16 06:01N 49°12' W 122°55'0 0.0
2017-Sep-16 05:30N 49°12' W 122°55'0 0.0
2017-Sep-16 05:00N 49°12' W 122°55'0 0.0
2017-Sep-16 04:30N 49°12' W 122°55'0 0.0
2017-Sep-16 01:19N 49°12' W 122°55'0 0.0
2017-Sep-16 00:59N 49°12' W 122°55'0 0.0
2017-Sep-16 00:27N 49°12' W 122°55'0 0.0
2017-Sep-15 23:30N 49°12' W 122°55'0 0.0
2017-Sep-15 23:00N 49°12' W 122°55'0 0.0
2017-Sep-15 22:30N 49°12' W 122°55'1 2.4
2017-Sep-15 22:00N 49°10' W 122°56'714.8
2017-Sep-15 21:30N 49°07' W 123°06'4 7.8
2017-Sep-15 21:00N 49°07' W 123°11'5 9.1
2017-Sep-15 20:30N 49°07' W 123°05'4 8.2
2017-Sep-15 20:00N 49°10' W 122°60'  

Dump ship's entire track history